McAdams, Mississippi
Current Conditions -  °F | °C
As of 9:53 AM on Sunday 25 Jan 2015 (Local Time) from KGWO Reporting Station
Clear Clear  
Wind Chill: 51°   Ceiling: Unl
Heat Index: 51°   Visibility: 10mi
Dew Point: 39°   Wind: 17mph
Humidity: 63%   Direction: 220°SW
Pressure: 29.83"   Gusts: NA
Location:  33.02°N, 89.69°W
Report Text: KGWO 251553Z AUTO 22015KT 10SM CLR 11/04 A2983 RMK AO2 SLP099 T01060039
Loading
Personal Weather Stations






























Interactive Weather Map New forecast layout! Learn more

10-Day Weather Forecast

Advertisements
Track Severe Weather on mobile